createdAt,value
2019-05-28T00:00:16.686Z,15.04
2019-05-28T00:01:16.681Z,15.05
2019-05-28T00:02:16.681Z,15.04
2019-05-28T00:03:16.643Z,15.02
2019-05-28T00:04:16.630Z,15.00
2019-05-28T00:05:16.625Z,14.99
2019-05-28T00:06:16.634Z,14.99
2019-05-28T00:07:16.621Z,14.96
2019-05-28T00:08:16.618Z,14.93
2019-05-28T00:09:16.583Z,14.89
2019-05-28T00:10:16.572Z,14.89
2019-05-28T00:11:16.538Z,14.85
2019-05-28T00:12:16.527Z,14.81
2019-05-28T00:13:16.538Z,14.70
2019-05-28T00:14:16.494Z,14.66
2019-05-28T00:15:16.481Z,14.61
2019-05-28T00:16:16.478Z,14.55
2019-05-28T00:17:16.464Z,14.52
2019-05-28T00:18:16.487Z,14.49
2019-05-28T00:19:16.430Z,14.44
2019-05-28T00:20:16.431Z,14.40
2019-05-28T00:21:16.408Z,14.37
2019-05-28T00:22:16.391Z,14.38
2019-05-28T00:23:16.369Z,14.34
2019-05-28T00:24:16.389Z,14.34
2019-05-28T00:25:16.346Z,14.28
2019-05-28T00:26:16.338Z,14.30
2019-05-28T00:27:16.326Z,14.31
2019-05-28T00:28:16.303Z,14.30
2019-05-28T00:29:16.319Z,14.28
2019-05-28T00:30:20.490Z,14.25
2019-05-28T00:31:16.264Z,14.26
2019-05-28T00:32:16.251Z,14.26
2019-05-28T00:33:16.273Z,14.25
2019-05-28T00:34:16.250Z,14.22
2019-05-28T00:35:16.253Z,14.16
2019-05-28T00:36:16.215Z,14.11
2019-05-28T00:37:16.181Z,14.03
2019-05-28T00:38:16.168Z,13.98
2019-05-28T00:39:16.157Z,13.93
2019-05-28T00:40:16.155Z,13.89
2019-05-28T00:41:16.135Z,13.91
2019-05-28T00:42:16.120Z,13.87
2019-05-28T00:43:16.105Z,13.87
2019-05-28T00:44:16.095Z,13.89
2019-05-28T00:45:16.088Z,13.86
2019-05-28T00:46:16.064Z,13.82
2019-05-28T00:47:16.064Z,13.79
2019-05-28T00:48:16.035Z,13.76
2019-05-28T00:49:16.019Z,13.70
2019-05-28T00:50:16.010Z,13.67
2019-05-28T00:51:15.993Z,13.62
2019-05-28T00:52:16.040Z,13.57
2019-05-28T00:53:15.965Z,13.54
2019-05-28T00:54:15.953Z,13.50
2019-05-28T00:55:15.933Z,13.47
2019-05-28T00:56:15.914Z,13.47
2019-05-28T00:57:15.904Z,13.42
2019-05-28T00:58:15.902Z,13.37
2019-05-28T00:59:15.870Z,13.31
2019-05-28T01:00:15.871Z,13.26
2019-05-28T01:01:15.843Z,13.23
2019-05-28T01:02:15.839Z,13.17
2019-05-28T01:03:15.851Z,13.13
2019-05-28T01:04:15.837Z,13.08
2019-05-28T01:05:15.799Z,13.05
2019-05-28T01:06:15.774Z,13.02
2019-05-28T01:07:15.775Z,13.01
2019-05-28T01:08:15.747Z,13.02
2019-05-28T01:09:15.762Z,13.02
2019-05-28T01:10:15.724Z,13.03
2019-05-28T01:11:15.708Z,13.05
2019-05-28T01:12:15.687Z,13.03
2019-05-28T01:13:15.730Z,13.05
2019-05-28T01:14:15.665Z,13.06
2019-05-28T01:15:15.662Z,13.06
2019-05-28T01:16:15.636Z,13.03
2019-05-28T01:17:15.619Z,13.03
2019-05-28T01:18:15.614Z,13.02
2019-05-28T01:19:15.623Z,12.95
2019-05-28T01:20:15.579Z,12.87
2019-05-28T01:21:15.564Z,12.83
2019-05-28T01:22:15.551Z,12.80
2019-05-28T01:23:15.534Z,12.75
2019-05-28T01:24:15.588Z,12.72
2019-05-28T01:25:16.761Z,12.70
2019-05-28T01:26:15.485Z,12.69
2019-05-28T01:27:15.475Z,12.68
2019-05-28T01:28:15.459Z,12.63
2019-05-28T01:29:15.501Z,12.63
2019-05-28T01:30:15.436Z,12.63
2019-05-28T01:31:15.419Z,12.62
2019-05-28T01:32:15.414Z,12.61
2019-05-28T01:33:15.414Z,12.62
2019-05-28T01:34:15.395Z,12.62
2019-05-28T01:35:15.360Z,12.63
2019-05-28T01:36:15.346Z,12.63
2019-05-28T01:37:15.329Z,12.66
2019-05-28T01:38:15.314Z,12.69
2019-05-28T01:39:15.299Z,12.70
2019-05-28T01:40:15.293Z,12.72
2019-05-28T01:41:15.273Z,12.73
2019-05-28T01:42:15.256Z,12.76
2019-05-28T01:43:15.288Z,12.78
2019-05-28T01:44:15.222Z,12.80
2019-05-28T01:45:15.231Z,12.84
2019-05-28T01:46:15.192Z,12.87
2019-05-28T01:47:15.180Z,12.90
2019-05-28T01:48:15.173Z,12.91
2019-05-28T01:49:15.175Z,12.90
2019-05-28T01:50:15.139Z,12.86
2019-05-28T01:51:15.128Z,12.84
2019-05-28T01:52:15.106Z,12.81
2019-05-28T01:53:15.229Z,12.80
2019-05-28T01:54:15.099Z,12.81
2019-05-28T01:55:15.063Z,12.81
2019-05-28T01:56:15.043Z,12.81
2019-05-28T01:57:15.037Z,12.83
2019-05-28T01:58:15.028Z,12.83
2019-05-28T01:59:15.034Z,12.83
2019-05-28T02:00:14.985Z,12.83
2019-05-28T02:01:14.985Z,12.81
2019-05-28T02:02:14.958Z,12.81
2019-05-28T02:03:14.943Z,12.81
2019-05-28T02:04:14.962Z,12.75
2019-05-28T02:05:14.918Z,12.72
2019-05-28T02:06:14.896Z,12.70
2019-05-28T02:07:14.884Z,12.65
2019-05-28T02:08:14.888Z,12.62
2019-05-28T02:09:14.916Z,12.61
2019-05-28T02:10:14.842Z,12.58
2019-05-28T02:11:14.827Z,12.62
2019-05-28T02:12:14.817Z,12.61
2019-05-28T02:13:14.792Z,12.63
2019-05-28T02:14:14.785Z,12.62
2019-05-28T02:15:14.814Z,12.63
2019-05-28T02:16:14.757Z,12.63
2019-05-28T02:17:14.745Z,12.65
2019-05-28T02:18:14.744Z,12.68
2019-05-28T02:19:14.717Z,12.69
2019-05-28T02:20:14.746Z,12.69
2019-05-28T02:21:14.687Z,12.72
2019-05-28T02:22:14.676Z,12.72
2019-05-28T02:23:14.658Z,12.72
2019-05-28T02:24:14.639Z,12.70
2019-05-28T02:25:14.617Z,12.69
2019-05-28T02:26:14.637Z,12.72
2019-05-28T02:27:14.597Z,12.70
2019-05-28T02:28:14.585Z,12.72
2019-05-28T02:29:14.570Z,12.70
2019-05-28T02:30:14.550Z,12.69
2019-05-28T02:31:26.850Z,12.66
2019-05-28T02:32:14.510Z,12.62
2019-05-28T02:33:14.495Z,12.61
2019-05-28T02:34:14.493Z,12.61
2019-05-28T02:35:14.473Z,12.55
2019-05-28T02:36:14.457Z,12.57
2019-05-28T02:37:14.474Z,12.55
2019-05-28T02:38:14.429Z,12.54
2019-05-28T02:39:14.415Z,12.51
2019-05-28T02:40:14.399Z,12.44
2019-05-28T02:41:14.379Z,12.36
2019-05-28T02:42:14.392Z,12.32
2019-05-28T02:43:14.351Z,12.32
2019-05-28T02:44:14.366Z,12.30
2019-05-28T02:45:14.341Z,12.26
2019-05-28T02:46:14.304Z,12.23
2019-05-28T02:47:14.299Z,12.26
2019-05-28T02:48:14.304Z,12.25
2019-05-28T02:49:14.259Z,12.26
2019-05-28T02:50:14.248Z,12.21
2019-05-28T02:51:14.240Z,12.20
2019-05-28T02:52:14.222Z,12.18
2019-05-28T02:53:14.234Z,12.17
2019-05-28T02:54:14.328Z,12.15
2019-05-28T02:55:14.209Z,12.14
2019-05-28T02:56:14.166Z,12.14
2019-05-28T02:57:14.140Z,12.12
2019-05-28T02:58:14.133Z,12.12
2019-05-28T02:59:14.111Z,12.12
2019-05-28T03:00:14.106Z,12.12
2019-05-28T03:01:14.086Z,12.12
2019-05-28T03:02:14.067Z,12.11
2019-05-28T03:03:14.055Z,12.11
2019-05-28T03:04:14.062Z,12.11
2019-05-28T03:05:14.053Z,12.12
2019-05-28T03:06:14.062Z,12.11
2019-05-28T03:07:13.986Z,12.11
2019-05-28T03:08:13.974Z,12.08
2019-05-28T03:09:13.959Z,12.07
2019-05-28T03:10:13.947Z,12.08
2019-05-28T03:11:13.923Z,12.08
2019-05-28T03:12:13.947Z,12.05
2019-05-28T03:13:13.906Z,12.05
2019-05-28T03:14:13.882Z,12.02
2019-05-28T03:15:13.868Z,11.97
2019-05-28T03:16:13.855Z,11.96
2019-05-28T03:17:13.866Z,11.95
2019-05-28T03:18:13.825Z,11.89
2019-05-28T03:19:13.811Z,11.89
2019-05-28T03:20:13.839Z,11.93
2019-05-28T03:21:13.789Z,11.91
2019-05-28T03:22:13.765Z,11.89
2019-05-28T03:23:13.757Z,11.89
2019-05-28T03:24:13.740Z,11.93
2019-05-28T03:25:13.722Z,11.96
2019-05-28T03:26:13.699Z,11.99
2019-05-28T03:27:13.698Z,12.02
2019-05-28T03:28:13.674Z,12.07
2019-05-28T03:29:13.666Z,12.11
2019-05-28T03:30:13.656Z,12.15
2019-05-28T03:31:13.663Z,12.20
2019-05-28T03:32:13.621Z,12.25
2019-05-28T03:33:13.635Z,12.30
2019-05-28T03:34:13.615Z,12.35
2019-05-28T03:35:13.573Z,12.39
2019-05-28T03:36:13.551Z,12.44
2019-05-28T03:37:13.561Z,12.50
2019-05-28T03:38:13.524Z,12.53
2019-05-28T03:39:13.533Z,12.55
2019-05-28T03:40:13.492Z,12.61
2019-05-28T03:41:13.480Z,12.63
2019-05-28T03:42:13.464Z,12.68
2019-05-28T03:43:13.453Z,12.69
2019-05-28T03:44:13.466Z,12.72
2019-05-28T03:45:13.423Z,12.75
2019-05-28T03:46:13.407Z,12.76
2019-05-28T03:47:13.400Z,12.78
2019-05-28T03:48:13.375Z,12.80
2019-05-28T03:49:13.411Z,12.76
2019-05-28T03:50:13.349Z,12.80
2019-05-28T03:51:13.324Z,12.83
2019-05-28T03:52:13.315Z,12.81
2019-05-28T03:53:13.301Z,12.81
2019-05-28T03:54:13.286Z,12.81
2019-05-28T03:55:13.268Z,12.83
2019-05-28T03:56:13.255Z,12.84
2019-05-28T03:57:13.240Z,12.84
2019-05-28T03:58:13.235Z,12.86
2019-05-28T03:59:13.209Z,12.84
2019-05-28T04:00:13.327Z,12.84
2019-05-28T04:01:13.201Z,12.84
2019-05-28T04:02:23.251Z,12.83
2019-05-28T04:03:13.157Z,12.80
2019-05-28T04:04:13.134Z,12.80
2019-05-28T04:05:13.126Z,12.80
2019-05-28T04:06:13.143Z,12.81
2019-05-28T04:07:13.104Z,12.84
2019-05-28T04:08:13.174Z,12.87
2019-05-28T04:09:13.070Z,12.88
2019-05-28T04:10:13.057Z,12.86
2019-05-28T04:11:13.063Z,12.87
2019-05-28T04:12:13.051Z,12.87
2019-05-28T04:13:13.009Z,12.86
2019-05-28T04:14:13.058Z,12.86
2019-05-28T04:15:12.973Z,12.88
2019-05-28T04:16:12.989Z,12.90
2019-05-28T04:17:12.945Z,12.90
2019-05-28T04:18:12.958Z,12.93
2019-05-28T04:19:12.925Z,12.94
2019-05-28T04:20:12.914Z,12.95
2019-05-28T04:21:12.903Z,12.98
2019-05-28T04:22:12.906Z,12.99
2019-05-28T04:23:12.882Z,13.01
2019-05-28T04:24:12.857Z,13.01
2019-05-28T04:25:12.848Z,13.02
2019-05-28T04:26:12.822Z,13.02
2019-05-28T04:27:12.839Z,13.02
2019-05-28T04:28:12.792Z,13.03
2019-05-28T04:29:12.773Z,13.05
2019-05-28T04:30:12.766Z,13.08
2019-05-28T04:31:12.778Z,13.08
2019-05-28T04:32:12.766Z,13.12
2019-05-28T04:33:12.726Z,13.12
2019-05-28T04:34:12.697Z,13.13
2019-05-28T04:35:12.695Z,13.16
2019-05-28T04:36:12.673Z,13.16
2019-05-28T04:37:12.733Z,13.17
2019-05-28T04:38:12.648Z,13.16
2019-05-28T04:39:12.633Z,13.19
2019-05-28T04:40:12.615Z,13.19
2019-05-28T04:41:12.613Z,13.20
2019-05-28T04:42:12.590Z,13.19
2019-05-28T04:43:12.578Z,13.19
2019-05-28T04:44:12.549Z,13.19
2019-05-28T04:45:12.534Z,13.19
2019-05-28T04:46:12.528Z,13.19
2019-05-28T04:47:12.509Z,13.17
2019-05-28T04:48:12.524Z,13.17
2019-05-28T04:49:12.479Z,13.13
2019-05-28T04:50:12.476Z,13.13
2019-05-28T04:51:12.451Z,13.13
2019-05-28T04:52:12.478Z,13.11
2019-05-28T04:53:12.427Z,13.08
2019-05-28T04:54:12.407Z,13.06
2019-05-28T04:55:12.404Z,13.05
2019-05-28T04:56:12.410Z,13.05
2019-05-28T04:57:12.364Z,13.05
2019-05-28T04:58:12.362Z,13.06
2019-05-28T04:59:12.334Z,13.05
2019-05-28T05:00:12.333Z,13.05
2019-05-28T05:01:12.305Z,13.05
2019-05-28T05:02:12.301Z,13.06
2019-05-28T05:03:12.279Z,13.06
2019-05-28T05:04:12.262Z,13.03
2019-05-28T05:05:12.285Z,13.03
2019-05-28T05:06:12.250Z,13.05
2019-05-28T05:07:12.291Z,13.03
2019-05-28T05:08:12.206Z,13.01
2019-05-28T05:09:12.199Z,13.02
2019-05-28T05:10:12.179Z,13.02
2019-05-28T05:11:12.171Z,13.05
2019-05-28T05:12:12.159Z,13.05
2019-05-28T05:13:12.143Z,13.06
2019-05-28T05:14:12.132Z,13.08
2019-05-28T05:15:12.139Z,13.11
2019-05-28T05:16:12.094Z,13.13
2019-05-28T05:17:12.085Z,13.19
2019-05-28T05:18:12.066Z,13.19
2019-05-28T05:19:12.065Z,13.20
2019-05-28T05:20:12.044Z,13.17
2019-05-28T05:21:12.031Z,13.13
2019-05-28T05:22:12.030Z,13.16
2019-05-28T05:23:11.988Z,13.13
2019-05-28T05:24:11.996Z,13.13
2019-05-28T05:25:12.025Z,13.13
2019-05-28T05:26:11.951Z,13.13
2019-05-28T05:27:11.937Z,13.12
2019-05-28T05:28:11.923Z,13.12
2019-05-28T05:29:11.912Z,13.11
2019-05-28T05:30:11.908Z,13.12
2019-05-28T05:31:11.894Z,13.13
2019-05-28T05:32:11.870Z,13.17
2019-05-28T05:33:19.831Z,13.20
2019-05-28T05:34:11.836Z,13.21
2019-05-28T05:35:11.831Z,13.21
2019-05-28T05:36:11.811Z,13.21
2019-05-28T05:37:11.823Z,13.20
2019-05-28T05:38:11.772Z,13.23
2019-05-28T05:39:11.765Z,13.23
2019-05-28T05:40:11.750Z,13.23
2019-05-28T05:41:11.736Z,13.24
2019-05-28T05:42:11.756Z,13.19
2019-05-28T05:43:11.707Z,13.13
2019-05-28T05:44:11.714Z,13.13
2019-05-28T05:45:11.703Z,13.16
2019-05-28T05:46:11.691Z,13.19
2019-05-28T05:47:11.663Z,13.17
2019-05-28T05:48:11.641Z,13.20
2019-05-28T05:49:11.637Z,13.17
2019-05-28T05:50:11.645Z,13.19
2019-05-28T05:51:11.587Z,13.20
2019-05-28T05:52:11.582Z,13.23
2019-05-28T05:53:11.590Z,13.26
2019-05-28T05:54:11.574Z,13.23
2019-05-28T05:55:11.537Z,13.19
2019-05-28T05:56:11.547Z,13.12
2019-05-28T05:57:11.501Z,13.11
2019-05-28T05:58:11.494Z,13.12
2019-05-28T05:59:11.476Z,13.13
2019-05-28T06:00:11.809Z,13.19
2019-05-28T06:01:11.444Z,13.24
2019-05-28T06:02:11.441Z,13.27
2019-05-28T06:03:11.415Z,13.33
2019-05-28T06:04:11.420Z,13.36
2019-05-28T06:05:11.420Z,13.37
2019-05-28T06:06:11.381Z,13.42
2019-05-28T06:07:11.408Z,13.43
2019-05-28T06:08:11.357Z,13.47
2019-05-28T06:09:11.341Z,13.49
2019-05-28T06:10:11.332Z,13.54
2019-05-28T06:11:11.315Z,13.46
2019-05-28T06:12:11.325Z,13.46
2019-05-28T06:13:11.296Z,13.47
2019-05-28T06:14:11.261Z,13.47
2019-05-28T06:15:11.329Z,13.49
2019-05-28T06:16:11.247Z,13.52
2019-05-28T06:17:11.357Z,13.55
2019-05-28T06:18:11.217Z,13.55
2019-05-28T06:19:11.194Z,13.58
2019-05-28T06:20:11.185Z,13.62
2019-05-28T06:21:16.438Z,13.67
2019-05-28T06:22:11.161Z,13.67
2019-05-28T06:23:11.145Z,13.70
2019-05-28T06:24:11.146Z,13.73
2019-05-28T06:25:11.128Z,13.76
2019-05-28T06:26:11.110Z,13.78
2019-05-28T06:27:11.089Z,13.79
2019-05-28T06:28:11.073Z,13.83
2019-05-28T06:29:11.095Z,13.83
2019-05-28T06:30:11.045Z,13.86
2019-05-28T06:31:11.028Z,13.83
2019-05-28T06:32:11.016Z,13.85
2019-05-28T06:33:10.997Z,13.86
2019-05-28T06:34:11.121Z,13.83
2019-05-28T06:35:10.973Z,13.85
2019-05-28T06:36:10.996Z,13.86
2019-05-28T06:37:10.949Z,13.87
2019-05-28T06:38:10.932Z,13.89
2019-05-28T06:39:10.928Z,13.91
2019-05-28T06:40:10.905Z,13.89
2019-05-28T06:41:10.901Z,13.89
2019-05-28T06:42:10.915Z,13.91
2019-05-28T06:43:10.872Z,13.93
2019-05-28T06:44:10.850Z,13.95
2019-05-28T06:45:10.891Z,13.97
2019-05-28T06:46:10.826Z,14.00
2019-05-28T06:47:10.844Z,14.01
2019-05-28T06:48:10.793Z,14.03
2019-05-28T06:49:10.775Z,14.04
2019-05-28T06:50:12.255Z,14.04
2019-05-28T06:51:10.903Z,14.05
2019-05-28T06:52:10.739Z,14.05
2019-05-28T06:53:10.730Z,14.00
2019-05-28T06:54:11.959Z,13.97
2019-05-28T06:55:10.704Z,13.97
2019-05-28T06:56:10.682Z,13.94
2019-05-28T06:57:22.385Z,13.95
2019-05-28T06:58:10.656Z,13.94
2019-05-28T06:59:10.643Z,13.93
2019-05-28T07:00:10.634Z,13.93
2019-05-28T07:01:10.622Z,13.93
2019-05-28T07:02:10.610Z,13.93
2019-05-28T07:03:10.588Z,13.93
2019-05-28T07:04:14.295Z,13.91
2019-05-28T07:05:10.555Z,13.93
2019-05-28T07:06:10.544Z,13.95
2019-05-28T07:07:10.528Z,13.94
2019-05-28T07:08:10.570Z,13.94
2019-05-28T07:09:10.517Z,13.95
2019-05-28T07:10:10.485Z,13.91
2019-05-28T07:11:10.478Z,13.89
2019-05-28T07:12:10.457Z,13.87
2019-05-28T07:13:10.448Z,13.85
2019-05-28T07:14:10.496Z,13.86
2019-05-28T07:15:10.430Z,13.82
2019-05-28T07:16:10.401Z,13.82
2019-05-28T07:17:10.398Z,13.82
2019-05-28T07:18:10.378Z,13.80
2019-05-28T07:19:23.974Z,13.79
2019-05-28T07:20:10.355Z,13.79
2019-05-28T07:21:10.343Z,13.76
2019-05-28T07:22:10.319Z,13.73
2019-05-28T07:23:10.733Z,13.70
2019-05-28T07:24:10.331Z,13.64
2019-05-28T07:25:10.424Z,13.62
2019-05-28T07:26:10.281Z,13.60
2019-05-28T07:27:10.260Z,13.57
2019-05-28T07:28:11.965Z,13.57
2019-05-28T07:29:10.222Z,13.60
2019-05-28T07:30:10.211Z,13.61
2019-05-28T07:31:10.218Z,13.62
2019-05-28T07:32:10.183Z,13.61
2019-05-28T07:33:10.189Z,13.58
2019-05-28T07:34:10.206Z,13.58
2019-05-28T07:35:10.150Z,13.58
2019-05-28T07:36:10.257Z,13.60
2019-05-28T07:37:10.113Z,13.60
2019-05-28T07:38:10.104Z,13.60
2019-05-28T07:39:12.273Z,13.61
2019-05-28T07:40:10.073Z,13.60
2019-05-28T07:41:10.056Z,13.60
2019-05-28T07:42:10.075Z,13.62
2019-05-28T07:43:10.025Z,13.62
2019-05-28T07:44:10.017Z,13.60
2019-05-28T07:45:10.010Z,13.61
2019-05-28T07:46:09.991Z,13.62
2019-05-28T07:47:11.230Z,13.65
2019-05-28T07:48:09.960Z,13.67
2019-05-28T07:49:09.960Z,13.64
2019-05-28T07:50:09.938Z,13.62
2019-05-28T07:51:09.922Z,13.61
2019-05-28T07:52:09.927Z,13.60
2019-05-28T07:53:09.884Z,13.58
2019-05-28T07:54:09.889Z,13.55
2019-05-28T07:55:09.854Z,13.55
2019-05-28T07:56:09.865Z,13.52
2019-05-28T07:57:09.870Z,13.49
2019-05-28T07:58:09.834Z,13.45
2019-05-28T07:59:09.831Z,13.40
2019-05-28T08:00:09.795Z,13.39
2019-05-28T08:01:09.779Z,13.37
2019-05-28T08:02:09.770Z,13.33
2019-05-28T08:03:09.777Z,13.30
2019-05-28T08:04:09.732Z,13.30
2019-05-28T08:05:09.748Z,13.28
2019-05-28T08:06:09.708Z,13.28
2019-05-28T08:07:09.687Z,13.30
2019-05-28T08:08:09.695Z,13.30
2019-05-28T08:09:09.663Z,13.30
2019-05-28T08:10:09.661Z,13.33
2019-05-28T08:11:09.647Z,13.39
2019-05-28T08:12:09.619Z,13.42
2019-05-28T08:13:09.654Z,13.43
2019-05-28T08:14:09.609Z,13.45
2019-05-28T08:15:09.585Z,13.46
2019-05-28T08:16:17.942Z,13.49
2019-05-28T08:17:09.547Z,13.54
2019-05-28T08:18:09.538Z,13.57
2019-05-28T08:19:09.523Z,13.58
2019-05-28T08:20:09.519Z,13.58
2019-05-28T08:21:09.501Z,13.61
2019-05-28T08:22:09.485Z,13.64
2019-05-28T08:23:09.469Z,13.65
2019-05-28T08:24:09.500Z,13.68
2019-05-28T08:25:27.553Z,13.68
2019-05-28T08:26:09.432Z,13.70
2019-05-28T08:27:09.423Z,13.71
2019-05-28T08:28:19.201Z,13.70
2019-05-28T08:29:09.379Z,13.67
2019-05-28T08:30:09.393Z,13.64
2019-05-28T08:31:16.041Z,13.64
2019-05-28T08:32:09.338Z,13.62
2019-05-28T08:33:09.635Z,13.60
2019-05-28T08:34:09.392Z,13.55
2019-05-28T08:35:09.304Z,13.49
2019-05-28T08:36:09.290Z,13.45
2019-05-28T08:37:09.278Z,13.39
2019-05-28T08:38:09.270Z,13.43
2019-05-28T08:39:09.272Z,13.42
2019-05-28T08:40:09.251Z,13.42
2019-05-28T08:41:09.237Z,13.45
2019-05-28T08:42:09.206Z,13.46
2019-05-28T08:43:09.272Z,13.47
2019-05-28T08:44:09.202Z,13.52
2019-05-28T08:45:09.252Z,13.57
2019-05-28T08:46:09.162Z,13.65
2019-05-28T08:47:09.143Z,13.73
2019-05-28T08:48:09.125Z,13.83
2019-05-28T08:49:09.104Z,13.94
2019-05-28T08:50:09.113Z,14.01
2019-05-28T08:51:10.291Z,14.12
2019-05-28T08:52:09.076Z,14.20
2019-05-28T08:53:09.172Z,14.25
2019-05-28T08:54:09.053Z,14.33
2019-05-28T08:55:09.056Z,14.37
2019-05-28T08:56:09.019Z,14.36
2019-05-28T08:57:08.990Z,14.33
2019-05-28T08:58:09.300Z,14.36
2019-05-28T08:59:08.972Z,14.31
2019-05-28T09:00:08.984Z,14.28
2019-05-28T09:01:08.953Z,14.26
2019-05-28T09:02:26.525Z,14.26
2019-05-28T09:03:08.912Z,14.28
2019-05-28T09:04:08.899Z,14.30
2019-05-28T09:05:25.218Z,14.31
2019-05-28T09:06:08.879Z,14.30
2019-05-28T09:07:08.875Z,14.25
2019-05-28T09:08:08.855Z,14.26
2019-05-28T09:09:08.843Z,14.34
2019-05-28T09:10:08.824Z,14.43
2019-05-28T09:11:09.169Z,14.55
2019-05-28T09:12:09.729Z,14.71
2019-05-28T09:13:08.785Z,14.82
2019-05-28T09:14:08.781Z,14.89
2019-05-28T09:15:08.749Z,14.92
2019-05-28T09:16:08.775Z,14.89
2019-05-28T09:17:08.741Z,14.85
2019-05-28T09:18:08.777Z,14.81
2019-05-28T09:19:10.516Z,14.79
2019-05-28T09:20:08.702Z,14.79
2019-05-28T09:21:08.711Z,14.77
2019-05-28T09:22:24.455Z,14.71
2019-05-28T09:23:08.653Z,14.71
2019-05-28T09:24:08.654Z,14.70
2019-05-28T09:25:08.622Z,14.71
2019-05-28T09:26:08.611Z,14.73
2019-05-28T09:27:08.633Z,14.78
2019-05-28T09:28:08.607Z,14.82
2019-05-28T09:29:08.575Z,14.93
2019-05-28T09:30:08.568Z,15.18
2019-05-28T09:31:08.563Z,15.37
2019-05-28T09:32:08.536Z,15.52
2019-05-28T09:33:08.565Z,15.72
2019-05-28T09:34:08.522Z,15.92
2019-05-28T09:35:08.497Z,16.24
2019-05-28T09:36:09.322Z,16.73
2019-05-28T09:37:08.499Z,17.34
2019-05-28T09:38:08.464Z,18.09
2019-05-28T09:39:08.486Z,18.71
2019-05-28T09:40:08.446Z,19.41
2019-05-28T09:41:08.437Z,20.00
2019-05-28T09:42:08.429Z,20.58
2019-05-28T09:43:08.406Z,20.92
2019-05-28T09:44:08.428Z,20.92
2019-05-28T09:45:21.829Z,20.80
2019-05-28T09:46:08.375Z,21.00
2019-05-28T09:47:08.364Z,21.20
2019-05-28T09:48:08.378Z,21.26
2019-05-28T09:49:08.383Z,21.08
2019-05-28T09:50:26.967Z,21.13
2019-05-28T09:51:08.353Z,21.37
2019-05-28T09:52:08.341Z,21.38
2019-05-28T09:53:08.317Z,21.26
2019-05-28T09:54:08.308Z,21.01
2019-05-28T09:55:08.440Z,20.83
2019-05-28T09:56:08.307Z,20.98
2019-05-28T09:57:08.293Z,20.44
2019-05-28T09:58:08.288Z,20.21
2019-05-28T09:59:08.283Z,20.02
2019-05-28T10:00:08.267Z,19.94
2019-05-28T10:01:08.354Z,19.94
2019-05-28T10:02:08.257Z,19.90
2019-05-28T10:03:08.250Z,19.71
2019-05-28T10:04:08.255Z,19.57
2019-05-28T10:05:08.233Z,19.56
2019-05-28T10:06:16.961Z,19.52
2019-05-28T10:07:08.344Z,19.48
2019-05-28T10:08:08.222Z,19.42
2019-05-28T10:09:08.217Z,19.16
2019-05-28T10:10:08.236Z,18.92
2019-05-28T10:11:08.216Z,18.68
2019-05-28T10:12:08.189Z,18.68
2019-05-28T10:13:08.176Z,18.70
2019-05-28T10:14:08.175Z,18.64
2019-05-28T10:15:08.159Z,18.48
2019-05-28T10:16:08.219Z,18.36
2019-05-28T10:17:08.139Z,18.24
2019-05-28T10:18:08.142Z,18.15
2019-05-28T10:19:08.131Z,18.02
2019-05-28T10:20:08.118Z,17.76
2019-05-28T10:21:17.604Z,17.59
2019-05-28T10:22:08.231Z,17.52
2019-05-28T10:23:08.092Z,17.46
2019-05-28T10:24:08.077Z,17.49
2019-05-28T10:25:08.079Z,17.53
2019-05-28T10:26:08.065Z,17.59
2019-05-28T10:27:08.060Z,17.68
2019-05-28T10:28:08.046Z,17.72
2019-05-28T10:29:08.031Z,17.90
2019-05-28T10:30:08.020Z,18.37
2019-05-28T10:31:08.017Z,18.88
2019-05-28T10:32:08.015Z,19.59
2019-05-28T10:33:08.032Z,20.39
2019-05-28T10:34:07.989Z,21.13
2019-05-28T10:35:07.974Z,21.68
2019-05-28T10:36:07.986Z,22.04
2019-05-28T10:37:07.988Z,22.03
2019-05-28T10:38:14.486Z,21.60
2019-05-28T10:39:07.969Z,21.26
2019-05-28T10:40:07.958Z,20.75
2019-05-28T10:41:07.928Z,20.39
2019-05-28T10:42:07.923Z,20.11
2019-05-28T10:43:07.916Z,19.93
2019-05-28T10:44:07.965Z,19.71
2019-05-28T10:45:07.900Z,19.55
2019-05-28T10:46:08.355Z,19.41
2019-05-28T10:47:08.281Z,19.24
2019-05-28T10:48:07.882Z,19.12
2019-05-28T10:49:07.873Z,19.08
2019-05-28T10:50:07.946Z,18.89
2019-05-28T10:51:07.846Z,18.92
2019-05-28T10:52:07.844Z,19.17
2019-05-28T10:53:08.212Z,19.81
2019-05-28T10:54:07.830Z,20.39
2019-05-28T10:55:07.925Z,20.75
2019-05-28T10:56:07.837Z,20.82
2019-05-28T10:57:07.797Z,20.71
2019-05-28T10:58:07.787Z,20.26
2019-05-28T10:59:07.789Z,19.93
2019-05-28T11:00:07.771Z,19.70
2019-05-28T11:01:07.897Z,19.52
2019-05-28T11:02:07.761Z,19.32
2019-05-28T11:03:07.746Z,19.17
2019-05-28T11:04:07.742Z,18.92
2019-05-28T11:05:07.731Z,18.71
2019-05-28T11:06:07.720Z,18.57
2019-05-28T11:07:07.755Z,18.41
2019-05-28T11:08:07.701Z,18.15
2019-05-28T11:09:08.884Z,18.03
2019-05-28T11:10:22.585Z,17.87
2019-05-28T11:11:07.718Z,17.86
2019-05-28T11:12:07.670Z,17.80
2019-05-28T11:13:07.669Z,17.63
2019-05-28T11:14:07.649Z,17.53
2019-05-28T11:15:07.647Z,17.50
2019-05-28T11:16:07.769Z,17.41
2019-05-28T11:17:07.624Z,17.38
2019-05-28T11:18:07.615Z,17.38
2019-05-28T11:19:07.601Z,17.41
2019-05-28T11:20:07.589Z,17.39
2019-05-28T11:21:09.746Z,17.37
2019-05-28T11:22:07.619Z,17.32
2019-05-28T11:23:07.558Z,17.20
2019-05-28T11:24:07.543Z,17.09
2019-05-28T11:25:07.535Z,16.95
2019-05-28T11:26:07.556Z,16.77
2019-05-28T11:27:07.513Z,16.64
2019-05-28T11:28:07.504Z,16.57
2019-05-28T11:29:07.499Z,16.54
2019-05-28T11:30:07.480Z,16.51
2019-05-28T11:31:07.485Z,16.51
2019-05-28T11:32:07.764Z,16.49
2019-05-28T11:33:07.583Z,16.43
2019-05-28T11:34:07.511Z,16.40
2019-05-28T11:35:07.482Z,16.36
2019-05-28T11:36:07.420Z,16.31
2019-05-28T11:37:09.823Z,16.24
2019-05-28T11:38:07.387Z,16.24
2019-05-28T11:39:07.583Z,16.16
2019-05-28T11:40:08.395Z,16.13
2019-05-28T11:41:07.364Z,16.06
2019-05-28T11:42:07.354Z,16.00
2019-05-28T11:43:08.121Z,15.98
2019-05-28T11:44:07.364Z,15.96
2019-05-28T11:45:07.394Z,15.96
2019-05-28T11:46:07.302Z,15.98
2019-05-28T11:47:07.285Z,15.98
2019-05-28T11:48:07.292Z,15.96
2019-05-28T11:49:07.619Z,15.88
2019-05-28T11:50:07.332Z,15.85
2019-05-28T11:51:07.304Z,15.83
2019-05-28T11:52:07.231Z,15.70
2019-05-28T11:53:07.214Z,15.72
2019-05-28T11:54:07.229Z,15.59
2019-05-28T11:55:07.211Z,15.54
2019-05-28T11:56:07.175Z,15.50
2019-05-28T11:57:07.197Z,15.44
2019-05-28T11:58:07.166Z,15.39
2019-05-28T11:59:07.150Z,15.41
2019-05-28T12:00:07.151Z,15.41
2019-05-28T12:01:07.150Z,15.44
2019-05-28T12:02:08.269Z,15.47
2019-05-28T12:03:07.093Z,15.55
2019-05-28T12:04:07.077Z,15.62
2019-05-28T12:05:07.101Z,15.67
2019-05-28T12:06:07.066Z,15.72
2019-05-28T12:07:07.067Z,15.75
2019-05-28T12:08:07.043Z,15.76
2019-05-28T12:09:07.025Z,15.80
2019-05-28T12:10:07.038Z,15.73
2019-05-28T12:11:07.059Z,15.72
2019-05-28T12:12:06.991Z,15.75
2019-05-28T12:13:10.536Z,15.70
2019-05-28T12:14:06.963Z,15.73
2019-05-28T12:15:06.959Z,15.73
2019-05-28T12:16:06.940Z,15.69
2019-05-28T12:17:06.963Z,15.65
2019-05-28T12:18:06.945Z,15.69
2019-05-28T12:19:06.898Z,15.69
2019-05-28T12:20:06.891Z,15.67
2019-05-28T12:21:06.881Z,15.72
2019-05-28T12:22:06.901Z,15.75
2019-05-28T12:23:11.687Z,15.66
2019-05-28T12:24:06.871Z,15.60
2019-05-28T12:25:06.824Z,15.62
2019-05-28T12:26:06.817Z,15.63
2019-05-28T12:27:06.803Z,15.67
2019-05-28T12:28:06.793Z,15.67
2019-05-28T12:29:06.835Z,15.66
2019-05-28T12:30:06.774Z,15.66
2019-05-28T12:31:06.754Z,15.60
2019-05-28T12:32:08.388Z,15.59
2019-05-28T12:33:06.726Z,15.44
2019-05-28T12:34:06.717Z,15.45
2019-05-28T12:35:06.732Z,15.47
2019-05-28T12:36:06.702Z,15.52
2019-05-28T12:37:06.689Z,15.48
2019-05-28T12:38:06.674Z,15.44
2019-05-28T12:39:06.658Z,15.32
2019-05-28T12:40:06.679Z,15.23
2019-05-28T12:41:06.652Z,15.25
2019-05-28T12:42:07.449Z,15.26
2019-05-28T12:43:06.616Z,15.30
2019-05-28T12:44:06.601Z,15.11
2019-05-28T12:45:09.831Z,15.11
2019-05-28T12:46:06.582Z,15.08
2019-05-28T12:47:06.567Z,15.11
2019-05-28T12:48:12.178Z,15.17
2019-05-28T12:49:06.532Z,15.19
2019-05-28T12:50:19.110Z,15.22
2019-05-28T12:51:06.542Z,15.27
2019-05-28T12:52:06.502Z,15.33